Archival Weather

Chicago O'Hare International

Chicago, Illinois (KORD)

Report from: Wednesday, February 16, 2022 11:51 AM CST
Current time: Saturday, February 4, 2023 11:25 PM CST

Current weather
Weather history
Weather forecast

Temperature10.0°C (50.0°F)
Wind chill6.7°C (44.1°F)
Dew point5.0°C (41.0°F)
Winds 15 kts (7.7 m/s, 17.3 mph) Southwest (220°)
Wind gusts 29 kts (14.9 m/s, 33.4 mph)
Peak wind 35 kts (18 m/s, 40.3 mph) Southwest (220°) at 11:21
Visibility10 mi. (16.1 km)
Clouds Few clouds 4,000 ft. (1,219 m)
Ceiling: Broken clouds 5,000 ft. (1,524 m)
Overcast 6,000 ft. (1,829 m)
Altimeter29.78 in.Hg (1008 mB)
Relative humidity71 %
Density altitude-307 ft. (-94 m)
Sea-level pressure100.9 kPa (1009 mB, 29.78 in.Hg)
Max temp last 6 hours10.0°C (50.0°F)
Min temp last 6 hours7.8°C (46.0°F)
Remarks Automated weather observing station with precipitation discriminator
Pressure falling more quickly
Flight conditions Visual Meteorological Conditions
Raw dataKORD 161751Z 22015G29KT 10SM FEW040 BKN050 OVC060 10/05 A2978 RMK AO2 PK WND 22035/1721 SLP085 T01000050 10100 20078 58018
An unhandled exception has occurred. See browser dev tools for details. Reload 🗙